Time;durP1;ratioP1;P1;durP2;ratioP2;P2;SDS_P1;SDS_P2;PMS_P1;PMS_P2;Temp;Humidity;BMP_temperature;BMP_pressure;BME280_temperature;BME280_humidity;BME280_pressure;Samples;Min_cycle;Max_cycle;Signal;HPM_P1;HPM_P2
2022/07/30 00:01:15;;;;;;;7.13;3.63;;;20.80;1.00;;;;;;6287198;22;20514;-80
2022/07/30 00:03:42;;;;;;;6.60;3.00;;;20.70;1.00;;;;;;6287315;22;20426;-82
2022/07/30 00:06:09;;;;;;;9.30;3.10;;;20.70;1.00;;;;;;6284341;22;20447;-83
2022/07/30 00:08:38;;;;;;;9.83;3.20;;;20.70;1.00;;;;;;6289448;22;20387;-81
2022/07/30 00:11:10;;;;;;;6.93;3.47;;;20.60;1.00;;;;;;6286831;22;20526;-81
2022/07/30 00:13:38;;;;;;;9.47;3.20;;;20.60;1.00;;;;;;6287859;22;20411;-81
2022/07/30 00:16:06;;;;;;;7.10;3.23;;;20.60;1.00;;;;;;6288838;22;20402;-81
2022/07/30 00:18:40;;;;;;;6.40;3.30;;;20.60;1.00;;;;;;6285942;22;20443;-82
2022/07/30 00:21:07;;;;;;;8.03;3.43;;;20.50;1.00;;;;;;6285537;22;20426;-81
2022/07/30 00:23:38;;;;;;;7.97;3.13;;;20.50;1.00;;;;;;6285191;22;20449;-81
2022/07/30 00:26:06;;;;;;;9.00;3.53;;;20.40;1.00;;;;;;6285868;22;20507;-81
2022/07/30 00:28:37;;;;;;;7.20;3.57;;;20.40;1.00;;;;;;6285495;22;20403;-82
2022/07/30 00:31:04;;;;;;;12.77;3.33;;;20.40;1.00;;;;;;6287598;22;21234;-82
2022/07/30 00:33:31;;;;;;;12.93;3.90;;;20.40;1.00;;;;;;6216328;22;20416;-82
2022/07/30 00:35:58;;;;;;;13.03;4.30;;;20.40;1.00;;;;;;6231144;22;20428;-86
2022/07/30 00:38:28;;;;;;;7.53;3.10;;;20.30;1.00;;;;;;6221747;22;20432;-84
2022/07/30 00:41:00;;;;;;;7.00;3.50;;;20.30;1.00;;;;;;6251945;22;20475;-80
2022/07/30 00:43:34;;;;;;;7.40;3.97;;;20.30;1.00;;;;;;6248405;22;20384;-81
2022/07/30 00:46:01;;;;;;;9.60;3.57;;;20.30;1.00;;;;;;6255906;22;20935;-84
2022/07/30 00:48:28;;;;;;;6.30;3.37;;;20.30;1.00;;;;;;6254455;22;20446;-81
2022/07/30 00:51:00;;;;;;;9.00;3.37;;;20.20;1.00;;;;;;6254557;22;20416;-79
2022/07/30 00:53:27;;;;;;;9.37;3.40;;;20.30;1.00;;;;;;6258747;22;21471;-79
2022/07/30 00:55:57;;;;;;;7.53;2.77;;;20.20;1.00;;;;;;6258753;22;20403;-83
2022/07/30 00:58:45;;;;;;;10.60;6.97;;;20.20;1.00;;;;;;6230292;22;20374;-84
2022/07/30 01:01:12;;;;;;;11.47;3.40;;;20.20;1.00;;;;;;6261802;22;20427;-80
2022/07/30 01:03:39;;;;;;;7.00;3.60;;;20.10;1.00;;;;;;6250832;22;20942;-84
2022/07/30 01:06:09;;;;;;;7.70;3.10;;;20.10;1.00;;;;;;6256836;22;20451;-84
2022/07/30 01:08:36;;;;;;;7.40;3.30;;;20.10;1.00;;;;;;6253801;22;20543;-79
2022/07/30 01:11:11;;;;;;;8.27;3.30;;;20.10;1.00;;;;;;6256094;22;20406;-80
2022/07/30 01:13:38;;;;;;;8.60;3.70;;;20.00;1.00;;;;;;6255127;22;20997;-81
2022/07/30 01:16:13;;;;;;;7.10;3.43;;;20.00;1.00;;;;;;6251456;22;20396;-82
2022/07/30 01:21:38;;;;;;;8.60;3.47;;;20.00;1.00;;;;;;6186166;22;20451;-80
2022/07/30 01:24:20;;;;;;;9.13;3.10;;;19.80;1.00;;;;;;6257427;22;20388;-80
2022/07/30 01:27:08;;;;;;;7.63;3.10;;;19.90;1.00;;;;;;6257048;22;20388;-80
2022/07/30 01:29:37;;;;;;;7.97;3.57;;;19.80;1.00;;;;;;6254601;22;20451;-80
2022/07/30 01:32:06;;;;;;;8.80;3.40;;;19.80;1.00;;;;;;6268951;22;20453;-84
2022/07/30 01:34:40;;;;;;;10.87;3.20;;;19.80;1.00;;;;;;6286364;22;20399;-84
2022/07/30 01:37:09;;;;;;;9.40;3.87;;;19.80;1.00;;;;;;6274876;22;20433;-80
2022/07/30 01:39:39;;;;;;;6.47;3.43;;;19.80;1.00;;;;;;6287307;22;20387;-82
2022/07/30 01:42:14;;;;;;;7.40;3.13;;;19.80;1.00;;;;;;6271093;22;20438;-81
2022/07/30 01:44:55;;;;;;;7.70;3.70;;;19.80;1.00;;;;;;6285575;22;20454;-81
2022/07/30 01:47:32;;;;;;;8.47;3.10;;;19.70;1.00;;;;;;6269996;22;20422;-80
2022/07/30 01:50:01;;;;;;;8.43;3.50;;;19.80;1.00;;;;;;6286414;22;20419;-79
2022/07/30 01:52:30;;;;;;;7.80;3.40;;;19.70;1.00;;;;;;6259461;22;20423;-79
2022/07/30 01:55:00;;;;;;;9.23;3.53;;;19.70;1.00;;;;;;6274461;22;20387;-82
2022/07/30 01:57:29;;;;;;;10.40;3.60;;;19.70;1.00;;;;;;6285583;22;20768;-82
2022/07/30 02:00:05;;;;;;;7.73;3.60;;;19.70;1.00;;;;;;6288376;22;20455;-81
2022/07/30 02:02:34;;;;;;;9.47;3.60;;;19.70;1.00;;;;;;6287706;22;20434;-82
2022/07/30 02:05:01;;;;;;;6.70;2.90;;;19.70;1.00;;;;;;6267389;22;20871;-81
2022/07/30 02:07:36;;;;;;;7.90;3.37;;;19.70;1.00;;;;;;6287712;22;20403;-83
2022/07/30 02:10:13;;;;;;;12.97;4.10;;;19.70;1.00;;;;;;6287509;22;20857;-80
2022/07/30 02:12:50;;;;;;;8.50;2.97;;;19.70;1.00;;;;;;6289905;22;20476;-81
2022/07/30 02:15:28;;;;;;;11.43;3.27;;;19.70;1.00;;;;;;6285817;22;20437;-80
2022/07/30 02:18:27;;;;;;;9.73;3.57;;;19.60;1.00;;;;;;6293641;22;20402;-80
2022/07/30 02:21:00;;;;;;;10.23;2.83;;;19.60;1.00;;;;;;6289945;22;21039;-79
2022/07/30 02:23:30;;;;;;;8.63;3.40;;;19.60;1.00;;;;;;6287236;22;20450;-78
2022/07/30 02:25:59;;;;;;;7.10;2.73;;;19.50;1.00;;;;;;6287330;22;20949;-83
2022/07/30 02:28:32;;;;;;;7.17;3.73;;;19.60;1.00;;;;;;6287282;22;20407;-80
2022/07/30 02:37:30;;;;;;;8.93;3.67;;;19.50;1.00;;;;;;6277025;22;20484;-80
2022/07/30 02:40:00;;;;;;;9.77;3.23;;;19.50;1.00;;;;;;6258879;22;20422;-80
2022/07/30 02:42:29;;;;;;;8.10;3.57;;;19.50;1.00;;;;;;6258125;22;20792;-79
2022/07/30 02:45:02;;;;;;;10.07;3.47;;;19.50;1.00;;;;;;6257932;22;20400;-79
2022/07/30 02:47:30;;;;;;;6.67;2.90;;;19.40;1.00;;;;;;6257607;22;20435;-83
2022/07/30 02:50:00;;;;;;;9.63;3.10;;;19.40;1.00;;;;;;6258565;22;20394;-81
2022/07/30 02:52:30;;;;;;;8.20;3.07;;;19.30;1.00;;;;;;6244225;22;20533;-80
2022/07/30 02:55:05;;;;;;;9.90;3.87;;;19.30;1.00;;;;;;6258538;22;20996;-84
2022/07/30 02:57:38;;;;;;;8.03;3.00;;;19.30;1.00;;;;;;6255755;22;21252;-79
2022/07/30 03:00:10;;;;;;;6.73;2.53;;;19.30;1.00;;;;;;6255359;22;21251;-82
2022/07/30 03:02:39;;;;;;;7.43;3.37;;;19.30;1.00;;;;;;6275379;22;20379;-81
2022/07/30 03:05:08;;;;;;;8.43;2.80;;;19.30;1.00;;;;;;6274143;22;20542;-80
2022/07/30 03:07:39;;;;;;;7.30;3.17;;;19.30;1.00;;;;;;6286621;22;20426;-79
2022/07/30 03:10:07;;;;;;;9.00;2.77;;;19.30;1.00;;;;;;6287929;22;20415;-80
2022/07/30 03:12:40;;;;;;;9.37;2.87;;;19.20;1.00;;;;;;6266893;22;20384;-80
2022/07/30 03:15:13;;;;;;;9.10;3.10;;;19.20;1.00;;;;;;6273518;22;20947;-85
2022/07/30 03:17:51;;;;;;;7.63;2.90;;;19.20;1.00;;;;;;6268236;22;20509;-82
2022/07/30 03:20:26;;;;;;;12.60;3.30;;;19.20;1.00;;;;;;6261601;22;20439;-81
2022/07/30 03:22:58;;;;;;;7.73;3.00;;;19.20;1.00;;;;;;6256283;22;20451;-81
2022/07/30 03:25:29;;;;;;;8.50;2.90;;;19.10;1.00;;;;;;6277132;22;20438;-84
2022/07/30 03:28:01;;;;;;;10.00;2.93;;;19.10;1.00;;;;;;6278179;22;20446;-84
2022/07/30 03:30:30;;;;;;;7.87;3.30;;;19.10;1.00;;;;;;6285986;22;20401;-85
2022/07/30 03:32:59;;;;;;;8.13;2.50;;;19.10;1.00;;;;;;6287277;22;20403;-81
2022/07/30 03:35:28;;;;;;;10.13;3.00;;;19.10;1.00;;;;;;6284897;22;25621;-81
2022/07/30 03:37:59;;;;;;;6.47;2.70;;;19.10;1.00;;;;;;6285431;22;20393;-79
2022/07/30 03:40:29;;;;;;;10.27;3.10;;;19.10;1.00;;;;;;6286113;22;20411;-79
2022/07/30 03:42:59;;;;;;;7.30;2.73;;;19.10;1.00;;;;;;6287184;22;21261;-82
2022/07/30 03:45:40;;;;;;;6.80;2.70;;;19.20;1.00;;;;;;6284466;22;20414;-81
2022/07/30 03:48:08;;;;;;;9.27;3.50;;;19.20;1.00;;;;;;6288156;22;20435;-84
2022/07/30 03:50:41;;;;;;;8.30;2.57;;;19.30;1.00;;;;;;6280731;22;20426;-85
2022/07/30 03:53:11;;;;;;;8.43;2.77;;;19.30;1.00;;;;;;6277448;22;20515;-81
2022/07/30 03:55:39;;;;;;;7.73;2.53;;;19.30;1.00;;;;;;6253491;22;20416;-80
2022/07/30 03:58:10;;;;;;;7.63;3.40;;;19.30;1.00;;;;;;6256479;22;21001;-86
2022/07/30 04:00:41;;;;;;;9.10;2.63;;;19.40;1.00;;;;;;6276427;22;20447;-83
2022/07/30 04:03:08;;;;;;;7.10;2.63;;;19.40;1.00;;;;;;6286942;22;20514;-83
2022/07/30 04:05:39;;;;;;;7.83;2.50;;;19.40;1.00;;;;;;6274611;22;20391;-85
2022/07/30 04:08:05;;;;;;;12.80;3.60;;;19.40;1.00;;;;;;6289072;22;20419;-79
2022/07/30 04:10:37;;;;;;;7.33;3.13;;;19.40;1.00;;;;;;6276969;22;20419;-80
2022/07/30 04:13:04;;;;;;;8.50;2.50;;;19.40;1.00;;;;;;6268631;22;20554;-84
2022/07/30 04:15:57;;;;;;;7.17;2.70;;;19.40;1.00;;;;;;6273166;22;20427;-81
2022/07/30 04:18:31;;;;;;;7.90;2.80;;;19.40;1.00;;;;;;6284933;22;20444;-82
2022/07/30 04:21:02;;;;;;;7.47;2.83;;;19.40;1.00;;;;;;6287574;22;20389;-82
2022/07/30 04:23:29;;;;;;;6.90;2.10;;;19.50;1.00;;;;;;6273328;22;21167;-84
2022/07/30 04:25:56;;;;;;;6.80;2.37;;;19.50;1.00;;;;;;6264288;22;20464;-81
2022/07/30 04:28:24;;;;;;;7.10;2.43;;;19.60;1.00;;;;;;6252145;22;20874;-81
2022/07/30 04:30:53;;;;;;;10.80;3.23;;;19.60;1.00;;;;;;6249782;22;20888;-81
2022/07/30 04:33:20;;;;;;;8.20;2.50;;;19.60;1.00;;;;;;6249884;22;20871;-81
2022/07/30 04:35:48;;;;;;;9.47;2.40;;;19.60;1.00;;;;;;6251162;22;20404;-82
2022/07/30 04:38:15;;;;;;;7.23;2.30;;;19.60;1.00;;;;;;6248747;22;20454;-82
2022/07/30 04:40:42;;;;;;;8.40;2.77;;;19.60;1.00;;;;;;6249701;22;20595;-82
2022/07/30 04:43:09;;;;;;;6.90;2.33;;;19.60;1.00;;;;;;6248195;22;20555;-82
2022/07/30 04:45:36;;;;;;;6.17;2.47;;;19.70;1.00;;;;;;6241950;22;20917;-82
2022/07/30 04:48:05;;;;;;;7.53;2.57;;;19.70;1.00;;;;;;6282922;22;20551;-82
2022/07/30 04:50:34;;;;;;;6.83;2.03;;;19.70;1.00;;;;;;6280352;22;20744;-83
2022/07/30 04:53:02;;;;;;;9.03;2.67;;;19.70;1.00;;;;;;6282455;22;20431;-82
2022/07/30 04:55:30;;;;;;;6.00;2.07;;;19.80;1.00;;;;;;6283332;22;20450;-81
2022/07/30 04:57:59;;;;;;;11.53;3.77;;;19.80;1.00;;;;;;6278654;22;21014;-82
2022/07/30 05:00:27;;;;;;;7.10;2.10;;;19.80;1.00;;;;;;6250422;22;20423;-82
2022/07/30 05:02:56;;;;;;;6.23;2.00;;;19.80;1.00;;;;;;6249452;22;20970;-82
2022/07/30 05:05:26;;;;;;;8.53;2.30;;;19.90;1.00;;;;;;6249747;22;20435;-82
2022/07/30 05:07:54;;;;;;;10.23;3.20;;;19.90;1.00;;;;;;6250744;22;20408;-81
2022/07/30 05:10:21;;;;;;;8.10;2.47;;;20.00;1.00;;;;;;6249209;22;20905;-83
2022/07/30 05:12:49;;;;;;;6.70;2.63;;;20.00;1.00;;;;;;6249805;22;21052;-82
2022/07/30 05:15:16;;;;;;;9.00;2.60;;;20.00;1.00;;;;;;6271239;22;20402;-80
2022/07/30 05:17:44;;;;;;;8.03;2.10;;;20.00;1.00;;;;;;6271836;22;20509;-82
2022/07/30 05:20:11;;;;;;;6.47;2.23;;;20.10;1.00;;;;;;6279327;22;20810;-80
2022/07/30 05:22:40;;;;;;;7.80;2.30;;;20.10;1.00;;;;;;6281563;22;20518;-81
2022/07/30 05:25:08;;;;;;;7.43;2.27;;;20.20;1.00;;;;;;6283455;22;20429;-80
2022/07/30 05:27:35;;;;;;;7.77;2.17;;;20.20;1.00;;;;;;6283927;22;20419;-81
2022/07/30 05:30:02;;;;;;;11.17;3.50;;;20.30;1.00;;;;;;6283069;22;20435;-81
2022/07/30 05:32:29;;;;;;;9.00;3.23;;;20.30;1.00;;;;;;6269656;22;20535;-81
2022/07/30 05:34:57;;;;;;;7.37;2.90;;;20.40;1.00;;;;;;6281355;22;20429;-81
2022/07/30 05:37:25;;;;;;;7.10;2.70;;;20.40;1.00;;;;;;6255042;22;20812;-81
2022/07/30 05:39:54;;;;;;;10.03;2.60;;;20.50;1.00;;;;;;6252638;22;20753;-82
2022/07/30 05:42:20;;;;;;;5.87;2.03;;;20.60;1.00;;;;;;6249286;22;20436;-82
2022/07/30 05:44:49;;;;;;;8.10;2.47;;;20.70;1.00;;;;;;6251153;22;20553;-82
2022/07/30 05:47:19;;;;;;;10.57;3.03;;;20.70;1.00;;;;;;6251471;22;20982;-82
2022/07/30 05:49:47;;;;;;;8.30;3.10;;;20.90;1.00;;;;;;6253632;22;20415;-82
2022/07/30 05:52:15;;;;;;;8.20;2.40;;;20.90;1.00;;;;;;6250510;22;20992;-82
2022/07/30 05:54:41;;;;;;;5.93;2.47;;;21.00;1.00;;;;;;6251627;22;20458;-82
2022/07/30 05:57:11;;;;;;;6.50;2.73;;;20.90;1.00;;;;;;6251966;22;20428;-83
2022/07/30 05:59:38;;;;;;;7.90;3.10;;;21.00;1.00;;;;;;6253231;22;20420;-82
2022/07/30 06:02:05;;;;;;;10.50;2.73;;;21.10;1.00;;;;;;6251049;22;20415;-82
2022/07/30 06:04:34;;;;;;;7.17;2.20;;;21.10;1.00;;;;;;6281114;22;20431;-82
2022/07/30 06:07:01;;;;;;;6.60;2.27;;;21.10;1.00;;;;;;6281276;22;20415;-82
2022/07/30 06:09:27;;;;;;;12.30;2.90;;;21.20;1.00;;;;;;6281736;22;20443;-82
2022/07/30 06:11:54;;;;;;;9.20;2.50;;;21.20;1.00;;;;;;6283422;22;20848;-82
2022/07/30 06:14:23;;;;;;;7.60;2.20;;;21.20;1.00;;;;;;6282057;22;20489;-81
2022/07/30 06:16:50;;;;;;;8.17;2.50;;;21.10;1.00;;;;;;6281685;22;20422;-81
2022/07/30 06:19:17;;;;;;;7.60;2.90;;;21.10;1.00;;;;;;6284757;22;20458;-81
2022/07/30 06:21:44;;;;;;;8.70;2.70;;;21.10;1.00;;;;;;6286805;22;20965;-81
2022/07/30 06:24:11;;;;;;;11.33;2.57;;;21.10;1.00;;;;;;6287350;22;20450;-84
2022/07/30 06:26:40;;;;;;;9.47;2.57;;;21.10;1.00;;;;;;6281125;22;20422;-81
2022/07/30 06:29:10;;;;;;;9.53;2.77;;;21.20;1.00;;;;;;6290369;22;20414;-80
2022/07/30 06:31:41;;;;;;;6.80;2.57;;;21.20;1.00;;;;;;6290961;22;20363;-83
2022/07/30 06:34:08;;;;;;;8.10;2.80;;;21.20;1.00;;;;;;6289548;22;20843;-84
2022/07/30 06:36:40;;;;;;;7.50;2.33;;;21.30;1.00;;;;;;6291085;22;20375;-84
2022/07/30 06:39:09;;;;;;;6.23;1.90;;;21.40;1.00;;;;;;6290415;22;20454;-83
2022/07/30 06:41:39;;;;;;;7.03;2.63;;;21.40;1.00;;;;;;6290631;22;20394;-80
2022/07/30 06:44:06;;;;;;;7.37;2.60;;;21.40;1.00;;;;;;6286977;22;20485;-81
2022/07/30 06:46:33;;;;;;;10.23;2.47;;;21.50;1.00;;;;;;6275717;22;20425;-84
2022/07/30 06:49:02;;;;;;;8.37;2.83;;;21.60;1.00;;;;;;6298810;22;20420;-84
2022/07/30 06:51:29;;;;;;;6.87;2.50;;;21.70;1.00;;;;;;6241565;22;20431;-83
2022/07/30 06:53:56;;;;;;;7.60;2.63;;;21.90;1.00;;;;;;6259146;22;20430;-85
2022/07/30 06:56:29;;;;;;;8.70;3.50;;;22.00;1.00;;;;;;6257482;22;20931;-80
2022/07/30 06:58:56;;;;;;;5.70;2.30;;;22.20;1.00;;;;;;6256683;22;20439;-80
2022/07/30 07:01:38;;;;;;;6.67;2.87;;;22.20;1.00;;;;;;6238088;22;20490;-80
2022/07/30 07:04:11;;;;;;;8.23;3.00;;;22.30;1.00;;;;;;6258327;22;21244;-81
2022/07/30 07:06:38;;;;;;;6.80;2.53;;;22.40;1.00;;;;;;6251819;22;20450;-84
2022/07/30 07:09:09;;;;;;;9.03;3.10;;;22.30;1.00;;;;;;6257258;22;20411;-81
2022/07/30 07:11:38;;;;;;;7.40;2.37;;;22.30;1.00;;;;;;6258349;22;20447;-80
2022/07/30 07:14:22;;;;;;;6.40;2.87;;;22.40;1.00;;;;;;6247387;22;20420;-81
2022/07/30 07:16:49;;;;;;;7.53;3.00;;;22.20;1.00;;;;;;6278896;22;20455;-80
2022/07/30 07:19:18;;;;;;;7.63;2.53;;;22.20;1.00;;;;;;6285618;22;20929;-80
2022/07/30 07:21:49;;;;;;;8.10;2.67;;;22.40;1.00;;;;;;6284045;22;20375;-81
2022/07/30 07:24:16;;;;;;;7.00;2.13;;;22.50;1.00;;;;;;6257432;22;20434;-81
2022/07/30 07:26:44;;;;;;;6.50;3.57;;;22.60;1.00;;;;;;6264227;22;20497;-80
2022/07/30 07:29:11;;;;;;;7.67;2.70;;;22.70;1.00;;;;;;6291748;22;20423;-81
2022/07/30 07:31:39;;;;;;;5.87;2.40;;;22.70;1.00;;;;;;6257012;22;20396;-79
2022/07/30 07:34:10;;;;;;;5.60;1.83;;;22.80;1.00;;;;;;6254955;22;20375;-83
2022/07/30 07:36:39;;;;;;;7.87;2.60;;;22.90;1.00;;;;;;6257658;22;20824;-80
2022/07/30 07:39:12;;;;;;;6.70;2.70;;;22.90;1.00;;;;;;6249196;22;20392;-80
2022/07/30 07:41:40;;;;;;;12.20;2.73;;;22.90;1.00;;;;;;6287527;22;20822;-81
2022/07/30 07:44:09;;;;;;;5.50;2.17;;;23.00;1.00;;;;;;6288899;22;20399;-81
2022/07/30 07:46:36;;;;;;;7.70;2.20;;;23.20;1.00;;;;;;6289287;22;20422;-79
2022/07/30 07:49:06;;;;;;;8.03;2.53;;;23.20;1.00;;;;;;6288255;22;20936;-79
2022/07/30 07:51:35;;;;;;;5.97;2.50;;;23.40;1.00;;;;;;6266693;22;20435;-80
2022/07/30 07:54:08;;;;;;;5.70;2.20;;;23.60;1.00;;;;;;6273756;22;20431;-79
2022/07/30 07:56:37;;;;;;;5.60;2.13;;;23.60;1.00;;;;;;6274864;22;20427;-78
2022/07/30 07:59:04;;;;;;;7.20;2.63;;;23.70;1.00;;;;;;6283574;22;20840;-80
2022/07/30 08:01:31;;;;;;;8.97;3.00;;;23.90;1.00;;;;;;6281760;22;20416;-80
2022/07/30 08:03:58;;;;;;;9.00;2.63;;;24.00;1.00;;;;;;6288931;22;20407;-79
2022/07/30 08:06:29;;;;;;;7.60;2.57;;;24.20;1.00;;;;;;6277958;22;20418;-80
2022/07/30 08:08:56;;;;;;;7.37;2.53;;;24.40;1.00;;;;;;6259164;22;20455;-79
2022/07/30 08:11:36;;;;;;;6.70;2.30;;;24.50;1.00;;;;;;6257677;22;20503;-82
2022/07/30 08:14:09;;;;;;;7.73;2.70;;;24.70;1.00;;;;;;6260735;22;20406;-81
2022/07/30 08:16:37;;;;;;;5.50;1.90;;;24.90;1.00;;;;;;6250859;22;20447;-81
2022/07/30 08:19:11;;;;;;;6.87;2.10;;;24.90;1.00;;;;;;6275503;22;20438;-79
2022/07/30 08:21:38;;;;;;;6.23;2.60;;;24.80;1.00;;;;;;6256780;22;20426;-81
2022/07/30 08:24:10;;;;;;;7.50;2.87;;;24.90;1.00;;;;;;6257404;22;20396;-78
2022/07/30 08:26:38;;;;;;;7.60;2.50;;;24.80;1.00;;;;;;6275526;22;20473;-80
2022/07/30 08:29:16;;;;;;;9.97;2.33;;;24.80;1.00;;;;;;6283818;22;20394;-80
2022/07/30 08:31:48;;;;;;;8.30;2.20;;;24.90;1.00;;;;;;6297775;22;20512;-79
2022/07/30 08:34:15;;;;;;;6.97;2.27;;;25.10;1.00;;;;;;6281152;22;20923;-79
2022/07/30 08:36:42;;;;;;;8.40;2.80;;;24.90;1.00;;;;;;6285936;22;20478;-81
2022/07/30 08:39:10;;;;;;;5.10;2.10;;;24.70;1.00;;;;;;6283663;22;20422;-81
2022/07/30 08:41:38;;;;;;;7.80;2.80;;;24.50;1.00;;;;;;6286918;22;20423;-81
2022/07/30 08:44:10;;;;;;;6.37;2.80;;;24.70;1.00;;;;;;6260261;22;20423;-79
2022/07/30 08:46:42;;;;;;;6.07;2.10;;;25.00;1.00;;;;;;6254511;22;20419;-80
2022/07/30 08:49:14;;;;;;;5.67;2.30;;;25.20;1.00;;;;;;6258552;22;21196;-78
2022/07/30 08:51:42;;;;;;;7.87;2.80;;;25.30;1.00;;;;;;6254196;22;20384;-82
2022/07/30 08:54:12;;;;;;;8.13;2.97;;;25.40;1.00;;;;;;6252004;22;20440;-82
2022/07/30 08:56:41;;;;;;;6.90;2.80;;;25.40;1.00;;;;;;6227661;22;20450;-79
2022/07/30 08:59:10;;;;;;;7.40;3.40;;;25.50;1.00;;;;;;6267872;22;20435;-81
2022/07/30 09:01:37;;;;;;;7.70;2.67;;;25.60;1.00;;;;;;6300892;22;20908;-79
2022/07/30 09:04:09;;;;;;;5.70;2.43;;;25.70;1.00;;;;;;6286270;22;20417;-81
2022/07/30 09:06:39;;;;;;;6.73;2.83;;;25.80;1.00;;;;;;6284177;22;20411;-79
2022/07/30 09:09:11;;;;;;;6.57;2.67;;;25.90;1.00;;;;;;6285793;22;20435;-81
2022/07/30 09:11:41;;;;;;;6.37;2.40;;;26.10;1.00;;;;;;6254032;22;21590;-81
2022/07/30 09:14:11;;;;;;;7.37;2.60;;;26.10;1.00;;;;;;6251475;22;20505;-82
2022/07/30 09:16:39;;;;;;;7.03;2.13;;;26.30;1.00;;;;;;6275379;22;21249;-82
2022/07/30 09:19:15;;;;;;;6.47;2.53;;;26.50;1.00;;;;;;6302559;22;21169;-82
2022/07/30 09:21:54;;;;;;;6.83;2.70;;;26.60;1.00;;;;;;6275761;22;20447;-82
2022/07/30 09:24:22;;;;;;;7.90;2.77;;;26.70;1.00;;;;;;6287464;22;20858;-81
2022/07/30 09:26:56;;;;;;;9.73;2.70;;;26.70;1.00;;;;;;6288552;22;20397;-82
2022/07/30 09:29:29;;;;;;;6.70;2.77;;;26.80;1.00;;;;;;6280138;22;20498;-83
2022/07/30 09:31:58;;;;;;;7.43;2.83;;;26.90;1.00;;;;;;6261608;22;20435;-83
2022/07/30 09:34:31;;;;;;;7.00;2.60;;;27.10;1.00;;;;;;6257682;22;20392;-81
2022/07/30 09:37:00;;;;;;;7.40;2.87;;;27.00;1.00;;;;;;6254849;22;20408;-80
2022/07/30 09:39:31;;;;;;;9.03;5.00;;;27.10;1.00;;;;;;6265501;22;20405;-83
2022/07/30 09:42:01;;;;;;;8.90;3.30;;;27.20;1.00;;;;;;6276205;22;20511;-82
2022/07/30 09:44:31;;;;;;;9.50;3.10;;;27.40;1.00;;;;;;6293755;22;20505;-81
2022/07/30 09:47:01;;;;;;;9.13;2.73;;;27.60;1.00;;;;;;6275216;22;20421;-80
2022/07/30 09:49:31;;;;;;;5.63;2.17;;;27.80;1.00;;;;;;6290647;22;20391;-83
2022/07/30 09:51:58;;;;;;;8.63;3.50;;;27.80;1.00;;;;;;6290853;22;20407;-80
2022/07/30 09:54:50;;;;;;;6.23;2.57;;;27.80;1.00;;;;;;6287035;22;20395;-84
2022/07/30 09:57:19;;;;;;;9.47;2.53;;;27.60;1.00;;;;;;6285496;22;20408;-84
2022/07/30 09:59:49;;;;;;;7.40;2.97;;;27.50;1.00;;;;;;6289764;22;20387;-83
2022/07/30 10:02:16;;;;;;;12.90;3.27;;;27.50;1.00;;;;;;6286720;22;20407;-83
2022/07/30 10:04:48;;;;;;;9.83;3.47;;;27.50;1.00;;;;;;6264891;22;20452;-83
2022/07/30 10:07:19;;;;;;;10.50;3.13;;;27.50;1.00;;;;;;6279177;22;20431;-83
2022/07/30 10:09:51;;;;;;;6.63;2.90;;;27.70;1.00;;;;;;6279298;22;20427;-83
2022/07/30 10:12:21;;;;;;;8.30;3.10;;;28.00;1.00;;;;;;6242592;22;20420;-84
2022/07/30 10:14:53;;;;;;;6.40;2.10;;;28.20;1.00;;;;;;6296157;22;20471;-83
2022/07/30 10:17:22;;;;;;;6.60;2.53;;;28.50;1.00;;;;;;6287871;22;20928;-82
2022/07/30 10:19:53;;;;;;;5.10;1.97;;;28.70;1.00;;;;;;6292158;22;20430;-81
2022/07/30 10:22:20;;;;;;;6.57;2.50;;;29.30;1.00;;;;;;6277729;22;20419;-81
2022/07/30 10:24:51;;;;;;;8.23;2.57;;;29.80;1.00;;;;;;6282975;22;20451;-83
2022/07/30 10:27:20;;;;;;;5.27;2.30;;;30.00;1.00;;;;;;6243763;22;20384;-82
2022/07/30 10:29:52;;;;;;;6.50;2.27;;;30.30;1.00;;;;;;6259063;22;20403;-83
2022/07/30 10:32:20;;;;;;;10.90;3.10;;;31.10;1.00;;;;;;6242030;22;21239;-81
2022/07/30 10:34:50;;;;;;;5.70;2.10;;;32.10;1.00;;;;;;6269799;22;20395;-81
2022/07/30 10:37:19;;;;;;;7.50;2.60;;;32.30;1.00;;;;;;6283617;22;20428;-81
2022/07/30 10:39:56;;;;;;;6.47;2.07;;;32.30;1.00;;;;;;6283864;22;20458;-81
2022/07/30 10:43:03;;;;;;;8.47;2.70;;;32.10;1.00;;;;;;6277548;22;20513;-82
2022/07/30 10:45:48;;;;;;;5.17;2.10;;;32.40;1.00;;;;;;6253688;22;20407;-80
2022/07/30 10:48:16;;;;;;;5.43;1.93;;;32.60;1.00;;;;;;6256745;22;20426;-82
2022/07/30 10:50:52;;;;;;;6.03;3.50;;;32.40;1.00;;;;;;6257139;22;20411;-81
2022/07/30 10:53:39;;;;;;;7.90;2.67;;;32.20;1.00;;;;;;6251510;22;20451;-81
2022/07/30 10:56:15;;;;;;;4.57;1.77;;;32.10;1.00;;;;;;6259563;22;20435;-84
2022/07/30 10:59:10;;;;;;;7.87;2.30;;;32.00;1.00;;;;;;6261091;22;20775;-82
2022/07/30 11:02:10;;;;;;;9.90;2.33;;;31.80;1.00;;;;;;6287572;22;20421;-83
2022/07/30 11:04:37;;;;;;;8.07;2.40;;;31.40;1.00;;;;;;6285355;22;20450;-82
2022/07/30 11:07:34;;;;;;;6.40;2.40;;;31.00;1.00;;;;;;6270869;22;20448;-82
2022/07/30 11:10:02;;;;;;;5.90;2.13;;;30.30;1.00;;;;;;6260896;22;20424;-83
2022/07/30 11:12:56;;;;;;;8.27;2.50;;;30.00;1.00;;;;;;6257538;22;20398;-82
2022/07/30 11:15:53;;;;;;;5.87;2.03;;;29.70;1.00;;;;;;6252241;22;20388;-83
2022/07/30 11:18:20;;;;;;;8.10;1.90;;;29.50;1.00;;;;;;6274911;22;20410;-82
2022/07/30 11:21:15;;;;;;;8.87;2.40;;;29.30;1.00;;;;;;6257584;22;20407;-82
2022/07/30 11:23:50;;;;;;;6.97;2.40;;;29.00;1.00;;;;;;6266434;22;20431;-83
2022/07/30 11:26:51;;;;;;;5.73;1.80;;;28.80;1.00;;;;;;6266446;22;20425;-82
2022/07/30 11:29:38;;;;;;;5.80;2.10;;;28.90;1.00;;;;;;6289412;22;20422;-83
2022/07/30 11:32:31;;;;;;;5.43;1.77;;;29.60;1.00;;;;;;6278379;22;20515;-81
2022/07/30 11:35:19;;;;;;;6.87;2.50;;;30.20;1.00;;;;;;6284319;22;20446;-81
2022/07/30 11:38:03;;;;;;;5.00;2.20;;;31.00;1.00;;;;;;6283111;22;20395;-80
2022/07/30 11:40:32;;;;;;;7.70;2.00;;;31.30;1.00;;;;;;6286284;22;20465;-82
2022/07/30 11:43:22;;;;;;;7.83;2.10;;;31.90;1.00;;;;;;6289012;22;20449;-82
2022/07/30 11:45:52;;;;;;;8.00;2.13;;;32.70;1.00;;;;;;6282816;22;20398;-79
2022/07/30 11:48:21;;;;;;;5.50;2.00;;;33.20;1.00;;;;;;6267857;22;20477;-80
2022/07/30 11:50:50;;;;;;;6.43;2.30;;;33.20;1.00;;;;;;6283863;22;20399;-79
2022/07/30 11:53:20;;;;;;;5.33;1.67;;;33.30;1.00;;;;;;6277789;22;20931;-79
2022/07/30 11:55:53;;;;;;;4.77;1.80;;;34.60;1.00;;;;;;6242819;22;20998;-81
2022/07/30 11:58:31;;;;;;;5.60;1.67;;;35.60;1.00;;;;;;6257323;22;20494;-80
2022/07/30 12:01:00;;;;;;;4.83;1.60;;;36.40;1.00;;;;;;6280342;22;20540;-82
2022/07/30 12:03:32;;;;;;;8.53;2.00;;;36.60;1.00;;;;;;6281181;22;20427;-80
2022/07/30 12:06:05;;;;;;;6.47;2.33;;;36.50;1.00;;;;;;6254592;22;20426;-81
2022/07/30 12:08:41;;;;;;;4.73;1.53;;;36.40;1.00;;;;;;6268973;22;20447;-80
2022/07/30 12:11:10;;;;;;;6.10;1.93;;;36.00;1.00;;;;;;6263271;22;20427;-79
2022/07/30 12:13:38;;;;;;;5.33;1.90;;;35.90;1.00;;;;;;6274484;22;20843;-83
2022/07/30 12:16:11;;;;;;;5.77;2.00;;;36.30;1.00;;;;;;6281846;22;20809;-79
2022/07/30 12:18:39;;;;;;;5.80;2.90;;;36.30;1.00;;;;;;6276262;22;20414;-81
2022/07/30 12:21:12;;;;;;;4.50;1.60;;;36.10;1.00;;;;;;6273296;22;20478;-80
2022/07/30 12:23:40;;;;;;;7.47;2.77;;;35.40;1.00;;;;;;6275725;22;20419;-79
2022/07/30 12:26:23;;;;;;;6.07;2.30;;;34.60;1.00;;;;;;6270876;22;20482;-81
2022/07/30 12:28:54;;;;;;;5.00;2.00;;;34.60;1.00;;;;;;6287151;22;20505;-80
2022/07/30 12:31:21;;;;;;;6.50;2.13;;;34.60;1.00;;;;;;6284332;22;20955;-79
2022/07/30 12:33:55;;;;;;;8.17;1.80;;;34.60;1.00;;;;;;6287366;22;20393;-80
2022/07/30 12:36:33;;;;;;;6.60;1.50;;;34.60;1.00;;;;;;6268261;22;20503;-79
2022/07/30 12:39:01;;;;;;;4.60;2.20;;;34.90;1.00;;;;;;6263008;22;20466;-81
2022/07/30 12:41:45;;;;;;;6.10;1.87;;;35.20;1.00;;;;;;6251971;22;20392;-80
2022/07/30 12:44:37;;;;;;;5.67;1.80;;;34.70;1.00;;;;;;6253635;22;20946;-79
2022/07/30 12:47:18;;;;;;;4.57;1.90;;;34.60;1.00;;;;;;6251611;22;20440;-79
2022/07/30 12:49:51;;;;;;;5.93;1.93;;;34.30;1.00;;;;;;6284918;22;20760;-79
2022/07/30 12:52:28;;;;;;;5.87;2.40;;;34.30;1.00;;;;;;6273161;22;20410;-77
2022/07/30 12:55:05;;;;;;;4.10;1.87;;;34.20;1.00;;;;;;6271243;22;20434;-78
2022/07/30 12:57:55;;;;;;;5.90;1.77;;;34.60;1.00;;;;;;6288215;22;20476;-79
2022/07/30 13:00:22;;;;;;;6.60;2.10;;;35.10;1.00;;;;;;6279311;22;20421;-81
2022/07/30 13:02:54;;;;;;;5.33;2.23;;;35.80;1.00;;;;;;6287282;22;20459;-80
2022/07/30 13:05:52;;;;;;;5.80;1.93;;;37.10;1.00;;;;;;6264990;22;20419;-81
2022/07/30 13:08:19;;;;;;;3.60;1.60;;;38.80;1.00;;;;;;6236372;22;20423;-80
2022/07/30 13:11:03;;;;;;;4.43;1.60;;;39.80;1.00;;;;;;6257547;22;20391;-80
2022/07/30 13:13:33;;;;;;;5.30;1.67;;;40.90;1.00;;;;;;6243265;22;20399;-79
2022/07/30 13:16:01;;;;;;;3.57;1.50;;;41.10;1.00;;;;;;6243665;22;20411;-80
2022/07/30 13:18:33;;;;;;;4.00;1.73;;;40.80;1.00;;;;;;6278214;22;20425;-81
2022/07/30 13:21:03;;;;;;;8.57;2.13;;;41.00;1.00;;;;;;6256677;22;20761;-80
2022/07/30 13:23:31;;;;;;;6.70;2.20;;;39.90;1.00;;;;;;6254253;22;20436;-79
2022/07/30 13:26:00;;;;;;;4.70;2.07;;;38.70;1.00;;;;;;6282637;22;20414;-79
2022/07/30 13:28:33;;;;;;;4.53;2.03;;;37.90;1.00;;;;;;6253723;22;20427;-78